.
WxDataArchive / Data Records for 2008-10-23
2008-10-22 October 2008 2008-10-24

Data Records for Thursday, 23 October 2008

Time	Temp	Chill	HIndex	Humid	Dewpt	 Wind 	HiWind	WindDir	Rain 	Barom 
-----	----	-----	------	-----	-----	------	------	-------	-----	----- 
00:00	36.5	36.5	36.5	82	31.5	2	5	68	0.00	30.400 
00:05	36.6	36.6	36.6	83	31.9	3	9	90	0.00	30.399 
00:10	36.6	36.6	36.6	83	31.9	2	4	90	0.00	30.397 
00:15	36.8	36.8	36.8	83	32.1	2	9	90	0.00	30.395 
00:20	36.8	36.8	36.8	82	31.8	3	7	90	0.00	30.394 
00:25	36.8	36.8	36.8	82	31.8	2	6	90	0.00	30.395 
00:30	36.6	36.6	36.6	82	31.6	3	10	90	0.00	30.395 
00:35	36.6	36.6	36.6	82	31.6	3	8	90	0.00	30.394 
00:40	36.5	36.5	36.5	82	31.5	2	6	90	0.00	30.396 
00:45	36.3	36.3	36.3	82	31.3	2	5	90	0.00	30.397 
00:50	36.3	36.3	36.3	82	31.3	2	6	90	0.00	30.396 
00:55	36.3	36.3	36.3	81	31.0	2	5	90	0.00	30.396 
01:00	36.2	36.2	36.2	81	30.9	2	6	90	0.00	30.397 
01:05	36.2	36.2	36.2	81	30.9	2	6	112	0.00	30.397 
01:10	36.2	36.2	36.2	81	30.9	2	7	112	0.00	30.396 
01:15	36.0	36.0	36.0	81	30.7	3	6	90	0.00	30.395 
01:20	36.0	36.0	36.0	81	30.7	2	6	90	0.00	30.394 
01:25	35.9	35.9	35.9	81	30.6	3	12	90	0.00	30.393 
01:30	35.8	35.8	35.8	81	30.6	2	6	90	0.00	30.390 
01:35	35.6	35.6	35.6	81	30.4	2	4	90	0.00	30.388 
01:40	35.5	35.5	35.5	81	30.3	1	4	90	0.00	30.393 
01:45	35.3	35.3	35.3	81	30.1	1	4	90	0.00	30.395 
01:50	35.2	35.2	35.2	81	30.0	1	3	112	0.00	30.394 
01:55	35.0	35.0	35.0	81	29.8	2	4	90	0.00	30.387 
02:00	34.9	34.9	34.9	81	29.7	2	5	90	0.00	30.386 
02:05	34.9	34.9	34.9	81	29.7	2	5	90	0.00	30.387 
02:10	34.9	34.9	34.9	81	29.7	2	6	90	0.00	30.386 
02:15	34.7	34.7	34.7	81	29.5	1	4	90	0.00	30.392 
02:20	34.7	34.7	34.7	81	29.5	1	4	90	0.00	30.391 
02:25	34.7	34.7	34.7	81	29.5	1	4	90	0.00	30.395 
02:30	34.7	34.7	34.7	81	29.5	2	5	90	0.00	30.392 
02:35	34.6	34.6	34.6	81	29.4	1	3	90	0.00	30.392 
02:40	34.6	34.6	34.6	81	29.4	1	3	90	0.00	30.394 
02:45	34.4	34.4	34.4	81	29.2	1	3	90	0.00	30.392 
02:50	34.3	34.3	34.3	81	29.1	1	4	90	0.00	30.391 
02:55	34.1	34.1	34.1	82	29.2	1	2	68	0.00	30.393 
03:00	33.8	33.8	33.8	82	28.9	0	2	68	0.00	30.391 
03:05	33.7	33.7	33.7	82	28.8	1	3	68	0.00	30.395 
03:10	33.5	33.5	33.5	83	28.9	1	3	68	0.00	30.391 
03:15	33.5	33.5	33.5	83	28.9	0	2	68	0.00	30.392 
03:20	33.2	33.2	33.2	83	28.6	1	3	68	0.00	30.393 
03:25	33.1	33.1	33.1	83	28.5	1	2	68	0.00	30.389 
03:30	32.9	32.9	32.9	84	28.6	0	3	68	0.00	30.389 
03:35	32.8	32.8	32.8	84	28.5	1	4	90	0.00	30.390 
03:40	32.7	32.7	32.7	84	28.4	1	4	90	0.00	30.391 
03:45	32.5	32.5	32.5	84	28.2	1	4	90	0.00	30.393 
03:50	32.5	32.5	32.5	85	28.5	1	2	90	0.00	30.392 
03:55	32.4	32.4	32.4	85	28.4	0	2	90	0.00	30.392 
04:00	32.2	32.2	32.2	85	28.2	0	1	90	0.00	30.394 
04:05	32.1	32.1	32.1	85	28.1	0	3	90	0.00	30.394 
04:10	31.9	31.9	31.9	86	28.2	0	2	90	0.00	30.397 
04:15	31.8	31.8	31.8	86	28.1	1	4	112	0.00	30.396 
04:20	31.8	31.8	31.8	86	28.1	0	2	112	0.00	30.395 
04:25	31.6	31.6	31.6	87	28.2	1	4	90	0.00	30.393 
04:30	31.5	31.5	31.5	87	28.1	0	2	90	0.00	30.394 
04:35	31.5	31.5	31.5	87	28.1	1	2	90	0.00	30.392 
04:40	31.5	31.5	31.5	87	28.1	0	3	90	0.00	30.389 
04:45	31.5	31.5	31.5	88	28.4	1	2	90	0.00	30.393 
04:50	31.3	31.3	31.3	88	28.2	1	3	90	0.00	30.397 
04:55	31.3	31.3	31.3	88	28.2	1	4	90	0.00	30.397 
05:00	31.3	31.3	31.3	88	28.2	1	3	90	0.00	30.397 
05:05	31.3	31.3	31.3	88	28.2	1	3	90	0.00	30.401 
05:10	31.3	31.3	31.3	88	28.2	1	4	90	0.00	30.403 
05:15	31.3	31.3	31.3	88	28.2	1	3	68	0.00	30.404 
05:20	31.3	31.3	31.3	88	28.2	1	3	68	0.00	30.407 
05:25	31.3	31.3	31.3	88	28.2	1	3	90	0.00	30.407 
05:30	31.3	31.3	31.3	88	28.2	1	3	90	0.00	30.406 
05:35	31.3	31.3	31.3	88	28.2	1	4	90	0.00	30.406 
05:40	31.3	31.3	31.3	88	28.2	1	4	90	0.00	30.404 
05:45	31.5	31.5	31.5	88	28.4	1	5	90	0.00	30.402 
05:50	31.5	31.5	31.5	88	28.4	2	5	90	0.00	30.403 
05:55	31.5	31.5	31.5	88	28.4	1	3	90	0.00	30.403 
06:00	31.5	31.5	31.5	88	28.4	1	3	90	0.00	30.403 
06:05	31.3	31.3	31.3	88	28.2	1	3	90	0.00	30.407 
06:10	31.5	31.5	31.5	88	28.4	2	4	90	0.00	30.408 
06:15	31.3	31.3	31.3	88	28.2	1	3	90	0.00	30.410 
06:20	31.3	31.3	31.3	88	28.2	2	4	90	0.00	30.408 
06:25	31.3	31.3	31.3	88	28.2	1	3	90	0.00	30.408 
06:30	31.2	31.2	31.2	88	28.1	1	2	90	0.00	30.409 
06:35	31.2	31.2	31.2	88	28.1	1	2	90	0.00	30.409 
06:40	31.2	31.2	31.2	88	28.1	1	4	90	0.00	30.410 
06:45	31.2	31.2	31.2	88	28.1	1	4	90	0.00	30.411 
06:50	31.3	31.3	31.3	88	28.2	1	4	90	0.00	30.416 
06:55	31.3	31.3	31.3	88	28.2	1	3	90	0.00	30.417 
07:00	31.3	31.3	31.3	88	28.2	1	5	90	0.00	30.414 
07:05	31.3	31.3	31.3	88	28.2	1	3	90	0.00	30.417 
07:10	31.3	31.3	31.3	88	28.2	1	4	90	0.00	30.415 
07:15	31.3	31.3	31.3	87	27.9	1	3	112	0.00	30.415 
07:20	31.3	31.3	31.3	87	27.9	1	4	90	0.00	30.412 
07:25	31.3	31.3	31.3	87	27.9	0	2	90	0.00	30.416 
07:30	31.3	31.3	31.3	87	27.9	2	4	112	0.00	30.414 
07:35	31.5	31.5	31.5	87	28.1	2	4	90	0.00	30.411 
07:40	31.6	31.6	31.6	87	28.2	1	4	90	0.00	30.409 
07:45	31.8	31.8	31.8	87	28.4	1	5	90	0.00	30.410 
07:50	31.9	31.9	31.9	86	28.2	2	5	90	0.00	30.410 
07:55	32.2	32.2	32.2	86	28.5	2	5	90	0.00	30.408 
08:00	32.5	32.5	32.5	85	28.5	2	6	112	0.00	30.408 
08:05	32.8	32.8	32.8	85	28.8	2	5	90	0.00	30.411 
08:10	33.2	33.2	33.2	84	28.9	1	4	90	0.00	30.411 
08:15	33.5	33.5	33.5	84	29.2	1	3	90	0.00	30.410 
08:20	34.0	34.0	34.0	82	29.1	1	5	112	0.00	30.413 
08:25	34.4	34.4	34.4	81	29.2	2	5	90	0.00	30.414 
08:30	35.0	35.0	35.0	80	29.5	3	8	90	0.00	30.417 
08:35	35.8	35.8	35.8	78	29.6	1	5	90	0.00	30.415 
08:40	36.6	36.6	36.6	77	30.1	2	6	90	0.00	30.414 
08:45	37.3	37.3	37.3	76	30.4	1	4	90	0.00	30.414 
08:50	38.0	38.0	38.0	72	29.8	3	9	90	0.00	30.412 
08:55	38.3	38.3	38.3	71	29.7	3	12	90	0.00	30.408 
09:00	38.6	38.6	38.6	72	30.4	3	7	90	0.00	30.404 
09:05	38.9	38.9	38.9	72	30.7	3	8	90	0.00	30.405 
09:10	39.3	39.3	39.3	70	30.3	3	9	112	0.00	30.406 
09:15	39.8	39.8	39.8	69	30.5	2	6	90	0.00	30.405 
09:20	40.2	40.2	40.2	68	30.5	3	6	68	0.00	30.405 
09:25	40.3	40.3	40.3	67	30.2	3	10	90	0.00	30.404 
09:30	40.8	40.8	40.8	66	30.3	3	7	90	0.00	30.402 
09:35	41.2	41.2	41.2	65	30.3	3	6	90	0.00	30.404 
09:40	41.5	41.5	41.5	65	30.6	3	8	90	0.00	30.401 
09:45	41.6	41.6	41.6	65	30.7	3	9	112	0.00	30.403 
09:50	41.8	41.8	41.8	65	30.9	3	8	90	0.00	30.403 
09:55	42.3	42.3	42.3	64	31.0	2	6	90	0.00	30.405 
10:00	42.8	42.8	42.8	63	31.1	3	7	90	0.00	30.403 
10:05	43.1	43.1	43.1	64	31.8	3	9	90	0.00	30.402 
10:10	43.3	43.3	43.3	64	32.0	3	9	90	0.00	30.402 
10:15	43.9	43.9	43.9	63	32.1	2	6	90	0.00	30.401 
10:20	44.5	44.5	44.5	61	31.9	3	9	90	0.00	30.402 
10:25	44.6	44.6	44.6	61	32.0	3	6	90	0.00	30.400 
10:30	44.9	44.9	44.9	60	31.9	3	6	90	0.00	30.399 
10:35	45.5	45.5	45.5	59	32.0	2	5	90	0.00	30.398 
10:40	46.2	46.2	46.2	57	31.8	2	6	112	0.00	30.397 
10:45	46.5	46.5	46.5	58	32.5	3	9	112	0.00	30.388 
10:50	46.8	46.8	46.8	58	32.8	3	7	68	0.00	30.387 
10:55	47.0	47.0	47.0	58	33.0	3	7	90	0.00	30.385 
11:00	47.1	47.1	47.1	57	32.7	3	7	90	0.00	30.383 
11:05	47.4	47.4	47.4	57	32.9	2	5	112	0.00	30.384 
11:10	47.7	47.7	47.7	57	33.2	3	7	90	0.00	30.383 
11:15	48.0	48.0	48.0	56	33.1	2	6	90	0.00	30.383 
11:20	48.3	48.3	48.3	55	32.9	2	10	90	0.00	30.382 
11:25	48.6	48.6	48.6	56	33.6	3	9	90	0.00	30.377 
11:30	48.6	47.3	48.6	54	32.7	4	11	90	0.00	30.375 
11:35	48.8	47.5	48.8	56	33.8	4	10	90	0.00	30.373 
11:40	48.9	47.6	48.9	56	33.9	4	10	90	0.00	30.366 
11:45	49.2	47.3	49.2	55	33.7	5	11	90	0.00	30.364 
11:50	49.5	48.3	49.5	55	34.0	4	10	90	0.00	30.364 
11:55	49.8	48.6	49.8	54	33.8	4	13	90	0.00	30.356 
12:00	50.4	50.4	50.4	54	34.4	3	10	90	0.00	30.350 
12:05	50.8	50.8	50.8	52	33.8	3	8	90	0.00	30.349 
12:10	51.1	51.1	51.1	52	34.1	2	6	90	0.00	30.351 
12:15	51.4	51.4	51.4	51	33.9	3	7	90	0.00	30.351 
12:20	51.7	51.7	51.7	51	34.2	2	10	90	0.00	30.349 
12:25	52.2	52.2	52.2	51	34.6	2	7	90	0.00	30.350 
12:30	52.5	52.5	52.5	50	34.4	3	9	90	0.00	30.349 
12:35	52.8	52.8	52.8	50	34.7	3	7	112	0.00	30.349 
12:40	52.9	52.9	52.9	50	34.8	4	10	112	0.00	30.343 
12:45	53.1	53.1	53.1	50	35.0	5	11	90	0.00	30.336 
12:50	53.5	53.5	53.5	51	35.8	2	8	90	0.00	30.334 
12:55	53.9	53.9	53.9	47	34.1	3	7	90	0.00	30.330 
13:00	54.1	54.1	54.1	46	33.8	4	10	90	0.00	30.329 
13:05	54.2	54.2	54.2	45	33.3	2	9	112	0.00	30.330 
13:10	54.5	54.5	54.5	46	34.1	4	9	112	0.00	30.327 
13:15	54.7	54.7	54.7	46	34.3	3	14	90	0.00	30.324 
13:20	54.8	54.8	54.8	46	34.4	3	7	112	0.00	30.324 
13:25	55.3	55.3	55.3	46	34.9	2	6	112	0.00	30.324 
13:30	55.4	55.4	55.4	44	33.9	4	10	112	0.00	30.322 
13:35	55.6	55.6	55.6	43	33.5	1	6	90	0.00	30.319 
13:40	56.0	56.0	56.0	44	34.4	2	6	112	0.00	30.315 
13:45	56.5	56.5	56.5	42	33.7	3	9	90	0.00	30.309 
13:50	56.7	56.7	56.7	43	34.5	2	6	90	0.00	30.301 
13:55	56.7	56.7	56.7	43	34.5	3	9	90	0.00	30.299 
14:00	57.0	57.0	57.0	43	34.7	4	11	90	0.00	30.295 
14:05	57.5	57.5	57.5	41	34.0	3	7	90	0.00	30.294 
14:10	57.6	57.6	57.6	40	33.5	2	7	90	0.00	30.292 
14:15	57.8	57.8	57.8	39	33.0	4	9	112	0.00	30.292 
14:20	57.8	57.8	57.8	40	33.6	4	12	90	0.00	30.284 
14:25	58.0	58.0	58.0	39	33.2	4	11	90	0.00	30.282 
14:30	58.1	58.1	58.1	38	32.6	4	11	90	0.00	30.282 
14:35	58.3	58.3	58.3	38	32.8	4	9	90	0.00	30.281 
14:40	58.3	58.3	58.3	38	32.8	3	12	90	0.00	30.278 
14:45	58.4	58.4	58.4	38	32.9	4	10	90	0.00	30.278 
14:50	58.4	58.4	58.4	38	32.9	4	15	90	0.00	30.278 
14:55	58.4	58.4	58.4	36	31.6	4	11	90	0.00	30.278 
15:00	58.6	58.6	58.6	37	32.4	4	9	90	0.00	30.273 
15:05	58.9	58.9	58.9	37	32.7	3	10	90	0.00	30.271 
15:10	58.9	58.9	58.9	37	32.7	3	9	90	0.00	30.271 
15:15	58.9	58.9	58.9	39	34.0	3	6	90	0.00	30.268 
15:20	58.9	58.9	58.9	37	32.7	4	7	90	0.00	30.267 
15:25	59.0	59.0	59.0	37	32.8	3	8	90	0.00	30.267 
15:30	59.2	59.2	59.2	38	33.6	2	7	68	0.00	30.266 
15:35	59.2	59.2	59.2	35	31.6	3	14	112	0.00	30.264 
15:40	59.2	59.2	59.2	37	32.9	2	5	90	0.00	30.266 
15:45	59.2	59.2	59.2	37	32.9	2	7	112	0.00	30.266 
15:50	59.2	59.2	59.2	33	30.1	4	10	90	0.00	30.265 
15:55	59.2	59.2	59.2	35	31.6	2	6	90	0.00	30.264 
16:00	59.0	59.0	59.0	36	32.1	1	3	90	0.00	30.263 
16:05	59.0	59.0	59.0	34	30.7	2	9	90	0.00	30.262 
16:10	59.3	59.3	59.3	35	31.7	3	6	90	0.00	30.259 
16:15	59.6	59.6	59.6	33	30.5	3	7	90	0.00	30.253 
16:20	59.6	59.6	59.6	34	31.2	2	7	90	0.00	30.251 
16:25	59.3	59.3	59.3	34	30.9	3	7	90	0.00	30.251 
16:30	59.3	59.3	59.3	33	30.2	3	6	90	0.00	30.247 
16:35	59.3	59.3	59.3	33	30.2	3	6	90	0.00	30.248 
16:40	59.2	59.2	59.2	33	30.1	3	6	90	0.00	30.246 
16:45	58.9	58.9	58.9	34	30.6	2	5	90	0.00	30.244 
16:50	58.7	58.7	58.7	34	30.4	2	6	90	0.00	30.247 
16:55	58.4	58.4	58.4	35	30.9	2	5	112	0.00	30.251 
17:00	58.0	58.0	58.0	36	31.2	1	4	90	0.00	30.253 
17:05	57.6	57.6	57.6	37	31.5	1	4	90	0.00	30.250 
17:10	57.2	57.2	57.2	39	32.5	1	3	112	0.00	30.251 
17:15	56.9	56.9	56.9	39	32.2	1	3	112	0.00	30.251 
17:20	56.5	56.5	56.5	39	31.8	0	2	90	0.00	30.252 
17:25	56.2	56.2	56.2	40	32.2	1	3	90	0.00	30.249 
17:30	55.9	55.9	55.9	41	32.5	0	3	90	0.00	30.251 
17:35	55.6	55.6	55.6	42	32.9	0	1	90	0.00	30.250 
17:40	55.1	55.1	55.1	42	32.4	1	4	90	0.00	30.253 
17:45	55.0	55.0	55.0	42	32.3	0	3	112	0.00	30.253 
17:50	54.8	54.8	54.8	43	32.7	1	3	112	0.00	30.253 
17:55	54.4	54.4	54.4	42	31.8	1	4	68	0.00	30.254 
18:00	54.2	54.2	54.2	42	31.6	1	3	90	0.00	30.254 
18:05	54.1	54.1	54.1	43	32.1	1	3	68	0.00	30.257 
18:10	53.9	53.9	53.9	43	31.9	0	2	68	0.00	30.263 
18:15	53.6	53.6	53.6	43	31.7	0	1	68	0.00	30.267 
18:20	53.3	53.3	53.3	45	32.5	0	1	68	0.00	30.269 
18:25	52.8	52.8	52.8	46	32.6	0	0	---	0.00	30.269 
18:30	52.2	52.2	52.2	46	32.1	0	1	68	0.00	30.273 
18:35	51.9	51.9	51.9	47	32.3	0	1	68	0.00	30.273 
18:40	51.4	51.4	51.4	48	32.4	0	1	68	0.00	30.272 
18:45	51.1	51.1	51.1	49	32.6	0	1	68	0.00	30.273 
18:50	50.8	50.8	50.8	49	32.3	0	1	68	0.00	30.273 
18:55	50.4	50.4	50.4	50	32.5	0	1	68	0.00	30.272 
19:00	50.2	50.2	50.2	49	31.8	1	2	68	0.00	30.274 
19:05	50.2	50.2	50.2	48	31.3	1	4	68	0.00	30.272 
19:10	50.2	50.2	50.2	49	31.8	0	2	68	0.00	30.270 
19:15	50.2	50.2	50.2	50	32.3	0	2	68	0.00	30.271 
19:20	49.9	49.9	49.9	51	32.5	0	2	68	0.00	30.271 
19:25	49.6	49.6	49.6	51	32.2	0	3	68	0.00	30.265 
19:30	49.4	49.4	49.4	51	32.0	1	3	90	0.00	30.258 
19:35	49.2	49.2	49.2	51	31.9	1	4	90	0.00	30.258 
19:40	49.4	49.4	49.4	50	31.5	2	6	112	0.00	30.259 
19:45	49.2	49.2	49.2	51	31.9	1	4	112	0.00	30.260 
19:50	49.1	49.1	49.1	53	32.7	0	2	112	0.00	30.257 
19:55	48.8	48.8	48.8	54	32.9	0	3	112	0.00	30.258 
20:00	48.5	48.5	48.5	57	34.0	1	4	90	0.00	30.259 
20:05	48.0	48.0	48.0	59	34.4	1	3	68	0.00	30.255 
20:10	47.7	47.7	47.7	60	34.5	1	2	90	0.00	30.256 
20:15	47.4	47.4	47.4	62	35.0	1	5	90	0.00	30.257 
20:20	47.4	47.4	47.4	62	35.0	2	4	90	0.00	30.257 
20:25	47.3	47.3	47.3	63	35.4	1	4	112	0.00	30.260 
20:30	47.1	47.1	47.1	64	35.6	2	7	112	0.00	30.257 
20:35	47.0	47.0	47.0	65	35.9	2	6	90	0.00	30.258 
20:40	46.8	46.8	46.8	65	35.7	2	6	90	0.00	30.256 
20:45	46.5	46.5	46.5	65	35.4	1	4	90	0.00	30.256 
20:50	46.4	46.4	46.4	66	35.7	1	3	90	0.00	30.255 
20:55	46.2	46.2	46.2	66	35.5	1	3	90	0.00	30.256 
21:00	46.0	46.0	46.0	67	35.7	1	3	90	0.00	30.256 
21:05	45.8	45.8	45.8	67	35.5	0	1	90	0.00	30.257 
21:10	45.5	45.5	45.5	68	35.6	0	2	90	0.00	30.257 
21:15	45.2	45.2	45.2	68	35.3	0	2	90	0.00	30.259 
21:20	45.1	45.1	45.1	69	35.5	0	1	90	0.00	30.258 
21:25	44.8	44.8	44.8	69	35.3	0	0	---	0.00	30.258 
21:30	44.5	44.5	44.5	70	35.3	0	1	90	0.00	30.255 
21:35	44.2	44.2	44.2	71	35.4	0	0	---	0.00	30.257 
21:40	44.2	44.2	44.2	71	35.4	0	2	90	0.00	30.254 
21:45	44.2	44.2	44.2	69	34.7	1	3	112	0.00	30.255 
21:50	44.5	44.5	44.5	68	34.6	1	3	112	0.00	30.253 
21:55	44.8	44.8	44.8	67	34.5	2	4	112	0.00	30.251 
22:00	44.9	44.9	44.9	66	34.2	1	4	68	0.00	30.252 
22:05	44.9	44.9	44.9	66	34.2	1	4	68	0.00	30.247 
22:10	44.9	44.9	44.9	66	34.2	1	3	112	0.00	30.248 
22:15	44.8	44.8	44.8	66	34.1	1	2	112	0.00	30.245 
22:20	44.6	44.6	44.6	66	34.0	1	3	112	0.00	30.240 
22:25	44.6	44.6	44.6	65	33.6	1	3	90	0.00	30.234 
22:30	44.6	44.6	44.6	65	33.6	1	4	90	0.00	30.235 
22:35	44.6	44.6	44.6	64	33.2	1	3	90	0.00	30.237 
22:40	44.6	44.6	44.6	63	32.8	1	4	90	0.00	30.238 
22:45	44.8	44.8	44.8	62	32.6	1	4	68	0.00	30.240 
22:50	44.8	44.8	44.8	62	32.6	1	4	68	0.00	30.235 
22:55	44.9	44.9	44.9	61	32.3	1	6	90	0.00	30.232 
23:00	44.9	44.9	44.9	61	32.3	1	4	90	0.00	30.231 
23:05	45.1	45.1	45.1	60	32.1	1	3	68	0.00	30.230 
23:10	45.1	45.1	45.1	59	31.6	2	4	68	0.00	30.224 
23:15	45.1	45.1	45.1	59	31.6	1	2	68	0.00	30.225 
23:20	45.1	45.1	45.1	58	31.2	1	4	68	0.00	30.221 
23:25	45.1	45.1	45.1	58	31.2	2	4	90	0.00	30.221 
23:30	45.1	45.1	45.1	58	31.2	2	5	68	0.00	30.217 
23:35	45.1	45.1	45.1	58	31.2	1	5	90	0.00	30.213 
23:40	45.1	45.1	45.1	58	31.2	1	3	90	0.00	30.210 
23:45	45.1	45.1	45.1	57	30.8	2	5	90	0.00	30.206 
23:50	45.1	45.1	45.1	57	30.8	2	4	90	0.00	30.202 
23:55	45.1	45.1	45.1	58	31.2	1	3	90	0.00	30.199 

CoCoRaHS
IN-AL-39
A2 Web Hosting
Creative Commons License
GoDaddy
Look for:

loaded 2017-12-13 19:44:28 • last modified 2010-11-18 10:43:29
Privacy PolicyDisclaimer
• wx.awcolley.com is powered by PmWiki v.2002016 •
• all content (unless otherwise noted) © 2017 A W Colley